sensor_id;sensor_type;location;lat;lon;timestamp;pressure;altitude;pressure_sealevel;temperature;humidity
37856;BME280;23694;43.274;26.924;2022-09-28T00:01:07;97720.53;;;16.02;89.19
37856;BME280;23694;43.274;26.924;2022-09-28T00:03:34;97718.69;;;16.10;88.40
37856;BME280;23694;43.274;26.924;2022-09-28T00:06:01;97712.38;;;16.20;88.97
37856;BME280;23694;43.274;26.924;2022-09-28T00:08:28;97717.00;;;16.26;88.89
37856;BME280;23694;43.274;26.924;2022-09-28T00:10:54;97715.16;;;16.34;89.02
37856;BME280;23694;43.274;26.924;2022-09-28T00:13:20;97705.75;;;16.32;89.21
37856;BME280;23694;43.274;26.924;2022-09-28T00:15:47;97710.06;;;16.33;88.82
37856;BME280;23694;43.274;26.924;2022-09-28T00:18:13;97707.09;;;16.28;89.70
37856;BME280;23694;43.274;26.924;2022-09-28T00:20:39;97708.56;;;16.30;89.52
37856;BME280;23694;43.274;26.924;2022-09-28T00:23:05;97705.75;;;16.32;89.13
37856;BME280;23694;43.274;26.924;2022-09-28T00:25:31;97707.56;;;16.39;89.15
37856;BME280;23694;43.274;26.924;2022-09-28T00:27:57;97715.16;;;16.34;89.17
37856;BME280;23694;43.274;26.924;2022-09-28T00:30:23;97706.09;;;16.29;89.39
37856;BME280;23694;43.274;26.924;2022-09-28T00:32:50;97711.38;;;16.29;89.15
37856;BME280;23694;43.274;26.924;2022-09-28T00:35:16;97713.69;;;16.32;88.74
37856;BME280;23694;43.274;26.924;2022-09-28T00:37:42;97703.44;;;16.37;87.92
37856;BME280;23694;43.274;26.924;2022-09-28T00:40:08;97699.66;;;16.31;88.78
37856;BME280;23694;43.274;26.924;2022-09-28T00:42:34;97702.78;;;16.35;88.77
37856;BME280;23694;43.274;26.924;2022-09-28T00:45:00;97703.28;;;16.30;88.84
37856;BME280;23694;43.274;26.924;2022-09-28T00:47:42;97703.94;;;16.32;89.42
37856;BME280;23694;43.274;26.924;2022-09-28T00:55:10;97708.41;;;16.32;89.40
37856;BME280;23694;43.274;26.924;2022-09-28T00:57:42;97714.03;;;16.29;88.88
37856;BME280;23694;43.274;26.924;2022-09-28T01:00:09;97715.84;;;16.28;87.28
37856;BME280;23694;43.274;26.924;2022-09-28T01:02:36;97724.09;;;16.33;86.87
37856;BME280;23694;43.274;26.924;2022-09-28T01:05:04;97722.31;;;16.26;87.52
37856;BME280;23694;43.274;26.924;2022-09-28T01:07:32;97727.59;;;16.26;87.91
37856;BME280;23694;43.274;26.924;2022-09-28T01:09:59;97720.47;;;16.18;88.77
37856;BME280;23694;43.274;26.924;2022-09-28T01:12:26;97719.84;;;16.08;89.69
37856;BME280;23694;43.274;26.924;2022-09-28T01:14:52;97717.56;;;15.97;91.04
37856;BME280;23694;43.274;26.924;2022-09-28T01:17:25;97714.44;;;15.93;91.53
37856;BME280;23694;43.274;26.924;2022-09-28T01:26:30;97722.06;;;15.80;93.74
37856;BME280;23694;43.274;26.924;2022-09-28T01:28:28;97715.97;;;15.63;94.73
37856;BME280;23694;43.274;26.924;2022-09-28T01:31:09;97714.47;;;15.69;94.44
37856;BME280;23694;43.274;26.924;2022-09-28T01:36:26;97708.34;;;15.60;95.97
37856;BME280;23694;43.274;26.924;2022-09-28T01:38:58;97698.09;;;15.49;96.30
37856;BME280;23694;43.274;26.924;2022-09-28T01:41:28;97707.84;;;15.57;96.49
37856;BME280;23694;43.274;26.924;2022-09-28T01:43:58;97710.63;;;15.55;97.14
37856;BME280;23694;43.274;26.924;2022-09-28T01:46:48;97711.84;;;15.61;96.73
37856;BME280;23694;43.274;26.924;2022-09-28T01:49:31;97712.50;;;15.63;96.29
37856;BME280;23694;43.274;26.924;2022-09-28T01:55:01;97722.00;;;15.55;96.28
37856;BME280;23694;43.274;26.924;2022-09-28T01:57:39;97706.03;;;15.49;96.98
37856;BME280;23694;43.274;26.924;2022-09-28T02:00:09;97714.09;;;15.47;97.25
37856;BME280;23694;43.274;26.924;2022-09-28T02:02:43;97711.28;;;15.49;97.17
37856;BME280;23694;43.274;26.924;2022-09-28T02:05:24;97709.66;;;15.40;97.25
37856;BME280;23694;43.274;26.924;2022-09-28T02:10:36;97707.34;;;15.29;97.64
37856;BME280;23694;43.274;26.924;2022-09-28T02:13:28;97717.41;;;15.25;98.79
37856;BME280;23694;43.274;26.924;2022-09-28T02:18:31;97703.06;;;15.28;98.50
37856;BME280;23694;43.274;26.924;2022-09-28T02:21:11;97716.09;;;15.29;98.39
37856;BME280;23694;43.274;26.924;2022-09-28T02:23:45;97716.56;;;15.33;97.96
37856;BME280;23694;43.274;26.924;2022-09-28T02:26:17;97725.97;;;15.35;97.54
37856;BME280;23694;43.274;26.924;2022-09-28T02:28:45;97719.22;;;15.41;95.78
37856;BME280;23694;43.274;26.924;2022-09-28T02:31:11;97721.19;;;15.39;95.56
37856;BME280;23694;43.274;26.924;2022-09-28T02:33:40;97719.06;;;15.42;94.67
37856;BME280;23694;43.274;26.924;2022-09-28T02:36:09;97716.56;;;15.25;95.96
37856;BME280;23694;43.274;26.924;2022-09-28T02:38:36;97716.91;;;15.30;96.29
37856;BME280;23694;43.274;26.924;2022-09-28T02:52:26;97725.47;;;15.15;97.52
37856;BME280;23694;43.274;26.924;2022-09-28T02:55:23;97723.97;;;15.13;97.07
37856;BME280;23694;43.274;26.924;2022-09-28T03:00:26;97723.44;;;14.93;98.17
37856;BME280;23694;43.274;26.924;2022-09-28T03:05:48;97731.03;;;14.96;98.63
37856;BME280;23694;43.274;26.924;2022-09-28T03:08:28;97738.78;;;14.98;98.12
37856;BME280;23694;43.274;26.924;2022-09-28T03:11:04;97735.13;;;14.90;98.24
37856;BME280;23694;43.274;26.924;2022-09-28T03:13:32;97737.41;;;14.85;98.65
37856;BME280;23694;43.274;26.924;2022-09-28T03:16:25;97745.28;;;14.69;99.72
37856;BME280;23694;43.274;26.924;2022-09-28T03:18:53;97747.09;;;14.35;100.00
37856;BME280;23694;43.274;26.924;2022-09-28T03:21:19;97755.56;;;14.20;100.00
37856;BME280;23694;43.274;26.924;2022-09-28T03:23:45;97759.78;;;14.13;100.00
37856;BME280;23694;43.274;26.924;2022-09-28T03:26:13;97760.31;;;14.17;100.00
37856;BME280;23694;43.274;26.924;2022-09-28T03:28:39;97762.94;;;14.17;100.00
37856;BME280;23694;43.274;26.924;2022-09-28T03:31:05;97762.97;;;14.25;100.00
37856;BME280;23694;43.274;26.924;2022-09-28T03:33:31;97764.94;;;14.23;100.00
37856;BME280;23694;43.274;26.924;2022-09-28T03:35:57;97758.03;;;14.22;100.00
37856;BME280;23694;43.274;26.924;2022-09-28T03:38:24;97765.00;;;14.31;100.00
37856;BME280;23694;43.274;26.924;2022-09-28T03:40:57;97756.00;;;14.42;100.00
37856;BME280;23694;43.274;26.924;2022-09-28T03:43:24;97756.91;;;14.50;100.00
37856;BME280;23694;43.274;26.924;2022-09-28T03:45:55;97761.22;;;14.59;100.00
37856;BME280;23694;43.274;26.924;2022-09-28T03:48:23;97755.16;;;14.67;100.00
37856;BME280;23694;43.274;26.924;2022-09-28T03:50:56;97753.03;;;14.71;100.00
37856;BME280;23694;43.274;26.924;2022-09-28T03:53:23;97758.84;;;14.90;100.00
37856;BME280;23694;43.274;26.924;2022-09-28T03:55:50;97756.72;;;14.94;99.40
37856;BME280;23694;43.274;26.924;2022-09-28T03:58:19;97752.97;;;14.97;98.32
37856;BME280;23694;43.274;26.924;2022-09-28T04:00:46;97757.09;;;14.99;97.87
37856;BME280;23694;43.274;26.924;2022-09-28T04:03:12;97753.63;;;14.99;97.26
37856;BME280;23694;43.274;26.924;2022-09-28T04:05:38;97758.38;;;14.95;96.07
37856;BME280;23694;43.274;26.924;2022-09-28T04:08:04;97761.31;;;14.92;96.40
37856;BME280;23694;43.274;26.924;2022-09-28T04:10:30;97761.50;;;14.90;95.99
37856;BME280;23694;43.274;26.924;2022-09-28T04:12:57;97766.75;;;14.90;96.76
37856;BME280;23694;43.274;26.924;2022-09-28T04:15:24;97771.63;;;15.11;97.51
37856;BME280;23694;43.274;26.924;2022-09-28T04:17:50;97776.44;;;15.48;95.89
37856;BME280;23694;43.274;26.924;2022-09-28T04:20:16;97775.50;;;15.98;92.05
37856;BME280;23694;43.274;26.924;2022-09-28T04:22:42;97768.44;;;16.54;88.01
37856;BME280;23694;43.274;26.924;2022-09-28T04:25:09;97770.88;;;17.11;84.76
37856;BME280;23694;43.274;26.924;2022-09-28T04:27:35;97785.06;;;17.72;79.54
37856;BME280;23694;43.274;26.924;2022-09-28T04:30:30;97784.00;;;18.48;74.98
37856;BME280;23694;43.274;26.924;2022-09-28T04:32:56;97779.31;;;19.09;71.11
37856;BME280;23694;43.274;26.924;2022-09-28T04:35:22;97789.22;;;19.73;67.87
37856;BME280;23694;43.274;26.924;2022-09-28T04:37:48;97786.53;;;19.94;66.24
37856;BME280;23694;43.274;26.924;2022-09-28T04:40:14;97793.38;;;20.59;64.21
37856;BME280;23694;43.274;26.924;2022-09-28T04:42:41;97794.53;;;21.26;60.61
37856;BME280;23694;43.274;26.924;2022-09-28T04:45:07;97799.22;;;22.04;58.10
37856;BME280;23694;43.274;26.924;2022-09-28T04:47:33;97792.56;;;22.80;54.85
37856;BME280;23694;43.274;26.924;2022-09-28T04:49:59;97792.88;;;23.61;52.38
37856;BME280;23694;43.274;26.924;2022-09-28T04:52:25;97794.97;;;24.40;49.33
37856;BME280;23694;43.274;26.924;2022-09-28T04:54:52;97802.31;;;25.06;47.42
37856;BME280;23694;43.274;26.924;2022-09-28T04:57:18;97802.09;;;25.56;45.90
37856;BME280;23694;43.274;26.924;2022-09-28T04:59:44;97807.72;;;25.96;44.53
37856;BME280;23694;43.274;26.924;2022-09-28T05:02:10;97806.41;;;26.40;43.26
37856;BME280;23694;43.274;26.924;2022-09-28T05:04:38;97808.84;;;26.89;42.05
37856;BME280;23694;43.274;26.924;2022-09-28T05:07:04;97803.81;;;27.44;41.09
37856;BME280;23694;43.274;26.924;2022-09-28T05:09:30;97803.97;;;28.11;39.33
37856;BME280;23694;43.274;26.924;2022-09-28T05:11:56;97817.03;;;28.36;38.22
37856;BME280;23694;43.274;26.924;2022-09-28T05:14:23;97808.09;;;28.69;37.40
37856;BME280;23694;43.274;26.924;2022-09-28T05:16:49;97818.34;;;29.27;36.62
37856;BME280;23694;43.274;26.924;2022-09-28T05:19:15;97813.00;;;30.08;34.83
37856;BME280;23694;43.274;26.924;2022-09-28T05:21:44;97812.53;;;30.53;33.24
37856;BME280;23694;43.274;26.924;2022-09-28T05:24:11;97813.06;;;30.87;32.93
37856;BME280;23694;43.274;26.924;2022-09-28T05:26:37;97819.44;;;30.71;33.02
37856;BME280;23694;43.274;26.924;2022-09-28T05:29:03;97818.19;;;30.52;33.80
37856;BME280;23694;43.274;26.924;2022-09-28T05:31:30;97818.19;;;30.52;32.91
37856;BME280;23694;43.274;26.924;2022-09-28T05:33:57;97817.53;;;30.67;33.24
37856;BME280;23694;43.274;26.924;2022-09-28T05:36:23;97818.06;;;31.16;32.29
37856;BME280;23694;43.274;26.924;2022-09-28T05:38:51;97819.06;;;31.62;31.61
37856;BME280;23694;43.274;26.924;2022-09-28T05:41:17;97820.25;;;31.92;30.66
37856;BME280;23694;43.274;26.924;2022-09-28T05:43:43;97819.69;;;32.20;30.40
37856;BME280;23694;43.274;26.924;2022-09-28T05:46:10;97816.19;;;32.35;30.13
37856;BME280;23694;43.274;26.924;2022-09-28T05:48:36;97821.28;;;32.77;29.64
37856;BME280;23694;43.274;26.924;2022-09-28T05:51:02;97831.50;;;33.16;28.88
37856;BME280;23694;43.274;26.924;2022-09-28T05:53:28;97832.34;;;33.11;29.03
37856;BME280;23694;43.274;26.924;2022-09-28T05:55:58;97826.50;;;32.28;30.26
37856;BME280;23694;43.274;26.924;2022-09-28T05:58:24;97827.56;;;32.16;30.77
37856;BME280;23694;43.274;26.924;2022-09-28T06:00:56;97831.06;;;30.67;32.99
37856;BME280;23694;43.274;26.924;2022-09-28T06:03:22;97836.09;;;31.00;32.66
37856;BME280;23694;43.274;26.924;2022-09-28T06:05:50;97834.72;;;31.50;31.48
37856;BME280;23694;43.274;26.924;2022-09-28T06:08:16;97842.00;;;30.92;32.45
37856;BME280;23694;43.274;26.924;2022-09-28T06:10:42;97842.81;;;30.92;32.65
37856;BME280;23694;43.274;26.924;2022-09-28T06:13:08;97834.31;;;30.05;34.33
37856;BME280;23694;43.274;26.924;2022-09-28T06:15:35;97830.56;;;27.79;38.15
37856;BME280;23694;43.274;26.924;2022-09-28T06:18:08;97846.03;;;26.27;42.04
37856;BME280;23694;43.274;26.924;2022-09-28T06:20:38;97840.88;;;25.05;45.64
37856;BME280;23694;43.274;26.924;2022-09-28T06:23:07;97840.06;;;24.05;49.55
37856;BME280;23694;43.274;26.924;2022-09-28T06:25:33;97852.00;;;23.26;53.87
37856;BME280;23694;43.274;26.924;2022-09-28T06:28:05;97853.94;;;22.99;55.76
37856;BME280;23694;43.274;26.924;2022-09-28T06:30:33;97848.03;;;22.58;58.45
37856;BME280;23694;43.274;26.924;2022-09-28T06:33:01;97852.16;;;22.40;58.50
37856;BME280;23694;43.274;26.924;2022-09-28T06:35:29;97847.38;;;21.90;61.25
37856;BME280;23694;43.274;26.924;2022-09-28T06:37:56;97855.22;;;21.37;63.70
37856;BME280;23694;43.274;26.924;2022-09-28T06:40:22;97848.03;;;20.89;66.02
37856;BME280;23694;43.274;26.924;2022-09-28T06:42:57;97858.16;;;20.02;70.27
37856;BME280;23694;43.274;26.924;2022-09-28T06:45:25;97857.19;;;20.10;70.17
37856;BME280;23694;43.274;26.924;2022-09-28T06:47:56;97865.56;;;20.49;70.36
37856;BME280;23694;43.274;26.924;2022-09-28T06:50:28;97858.16;;;20.23;68.59
37856;BME280;23694;43.274;26.924;2022-09-28T06:52:57;97848.50;;;20.16;68.66
37856;BME280;23694;43.274;26.924;2022-09-28T06:55:27;97843.59;;;19.98;70.25
37856;BME280;23694;43.274;26.924;2022-09-28T06:58:05;97848.16;;;20.47;69.45
37856;BME280;23694;43.274;26.924;2022-09-28T07:00:33;97862.53;;;20.87;68.65
37856;BME280;23694;43.274;26.924;2022-09-28T07:03:09;97862.78;;;20.92;68.03
37856;BME280;23694;43.274;26.924;2022-09-28T07:05:47;97855.47;;;21.07;65.83
37856;BME280;23694;43.274;26.924;2022-09-28T07:08:15;97855.59;;;21.27;67.56
37856;BME280;23694;43.274;26.924;2022-09-28T07:10:45;97850.41;;;21.67;65.24
37856;BME280;23694;43.274;26.924;2022-09-28T07:13:13;97848.88;;;21.44;67.28
37856;BME280;23694;43.274;26.924;2022-09-28T07:15:40;97851.81;;;21.49;63.60
37856;BME280;23694;43.274;26.924;2022-09-28T07:18:07;97844.19;;;20.99;66.73
37856;BME280;23694;43.274;26.924;2022-09-28T07:20:35;97841.09;;;20.95;68.45
37856;BME280;23694;43.274;26.924;2022-09-28T07:23:04;97849.03;;;20.88;67.25
37856;BME280;23694;43.274;26.924;2022-09-28T07:25:31;97851.91;;;20.87;66.55
37856;BME280;23694;43.274;26.924;2022-09-28T07:27:58;97851.75;;;20.67;67.10
37856;BME280;23694;43.274;26.924;2022-09-28T07:30:26;97848.09;;;21.03;66.49
37856;BME280;23694;43.274;26.924;2022-09-28T07:32:53;97850.94;;;21.01;65.67
37856;BME280;23694;43.274;26.924;2022-09-28T07:35:19;97840.28;;;20.67;65.54
37856;BME280;23694;43.274;26.924;2022-09-28T07:37:47;97846.59;;;20.94;64.81
37856;BME280;23694;43.274;26.924;2022-09-28T07:40:13;97849.34;;;21.07;65.83
37856;BME280;23694;43.274;26.924;2022-09-28T07:43:05;97848.13;;;21.09;65.07
37856;BME280;23694;43.274;26.924;2022-09-28T07:45:31;97851.03;;;21.21;63.89
37856;BME280;23694;43.274;26.924;2022-09-28T07:48:01;97848.19;;;21.23;64.55
37856;BME280;23694;43.274;26.924;2022-09-28T07:50:28;97851.81;;;21.49;63.78
37856;BME280;23694;43.274;26.924;2022-09-28T07:52:55;97851.13;;;21.41;61.71
37856;BME280;23694;43.274;26.924;2022-09-28T07:55:22;97856.25;;;21.42;63.14
37856;BME280;23694;43.274;26.924;2022-09-28T07:57:55;97858.63;;;21.78;61.79
37856;BME280;23694;43.274;26.924;2022-09-28T08:00:24;97861.81;;;22.15;59.10
37856;BME280;23694;43.274;26.924;2022-09-28T08:02:50;97861.59;;;22.50;58.93
37856;BME280;23694;43.274;26.924;2022-09-28T08:05:16;97852.34;;;22.59;56.73
37856;BME280;23694;43.274;26.924;2022-09-28T08:07:43;97861.13;;;22.72;51.16
37856;BME280;23694;43.274;26.924;2022-09-28T08:10:10;97850.16;;;23.20;47.19
37856;BME280;23694;43.274;26.924;2022-09-28T08:12:36;97853.75;;;23.52;46.19
37856;BME280;23694;43.274;26.924;2022-09-28T08:15:05;97841.69;;;23.81;43.88
37856;BME280;23694;43.274;26.924;2022-09-28T08:17:35;97845.94;;;24.20;42.44
37856;BME280;23694;43.274;26.924;2022-09-28T08:20:01;97855.78;;;24.51;41.76
37856;BME280;23694;43.274;26.924;2022-09-28T08:22:46;97855.56;;;24.78;40.79
37856;BME280;23694;43.274;26.924;2022-09-28T08:25:12;97853.66;;;25.03;40.33
37856;BME280;23694;43.274;26.924;2022-09-28T08:27:38;97857.53;;;25.07;40.42
37856;BME280;23694;43.274;26.924;2022-09-28T08:30:04;97866.25;;;25.21;39.67
37856;BME280;23694;43.274;26.924;2022-09-28T08:32:30;97860.81;;;25.27;38.80
37856;BME280;23694;43.274;26.924;2022-09-28T08:34:57;97860.28;;;25.37;39.00
37856;BME280;23694;43.274;26.924;2022-09-28T08:37:24;97865.22;;;25.40;38.40
37856;BME280;23694;43.274;26.924;2022-09-28T08:39:50;97863.56;;;25.21;38.16
37856;BME280;23694;43.274;26.924;2022-09-28T08:42:31;97865.78;;;25.06;38.34
37856;BME280;23694;43.274;26.924;2022-09-28T08:45:07;97871.91;;;25.13;38.59
37856;BME280;23694;43.274;26.924;2022-09-28T08:47:50;97872.72;;;25.13;39.61
37856;BME280;23694;43.274;26.924;2022-09-28T08:50:44;97869.50;;;25.23;39.18
37856;BME280;23694;43.274;26.924;2022-09-28T08:53:41;97865.34;;;25.27;38.17
37856;BME280;23694;43.274;26.924;2022-09-28T08:56:28;97861.75;;;25.33;38.61
37856;BME280;23694;43.274;26.924;2022-09-28T08:59:02;97865.44;;;25.39;38.68
37856;BME280;23694;43.274;26.924;2022-09-28T09:01:39;97865.34;;;25.45;38.63
37856;BME280;23694;43.274;26.924;2022-09-28T09:04:09;97857.06;;;25.47;38.92
37856;BME280;23694;43.274;26.924;2022-09-28T09:18:06;97872.78;;;25.91;39.98
37856;BME280;23694;43.274;26.924;2022-09-28T09:20:57;97872.09;;;25.96;40.95
37856;BME280;23694;43.274;26.924;2022-09-28T09:23:35;97881.03;;;26.08;39.39
37856;BME280;23694;43.274;26.924;2022-09-28T09:31:18;97886.03;;;26.05;37.15
37856;BME280;23694;43.274;26.924;2022-09-28T09:34:17;97873.28;;;26.00;36.59
37856;BME280;23694;43.274;26.924;2022-09-28T09:36:48;97881.75;;;26.15;36.15
37856;BME280;23694;43.274;26.924;2022-09-28T09:39:59;97873.59;;;26.22;36.23
37856;BME280;23694;43.274;26.924;2022-09-28T09:42:45;97881.00;;;26.38;35.78
37856;BME280;23694;43.274;26.924;2022-09-28T09:48:24;97867.28;;;26.28;34.69
37856;BME280;23694;43.274;26.924;2022-09-28T09:50:55;97870.72;;;26.35;35.38
37856;BME280;23694;43.274;26.924;2022-09-28T09:53:32;97871.88;;;26.39;34.48
37856;BME280;23694;43.274;26.924;2022-09-28T09:56:33;97869.78;;;26.53;33.51
37856;BME280;23694;43.274;26.924;2022-09-28T09:59:10;97867.47;;;26.45;33.59
37856;BME280;23694;43.274;26.924;2022-09-28T10:01:39;97872.38;;;26.60;34.04
37856;BME280;23694;43.274;26.924;2022-09-28T10:04:26;97864.09;;;26.84;33.03
37856;BME280;23694;43.274;26.924;2022-09-28T10:07:04;97866.19;;;26.82;32.67
37856;BME280;23694;43.274;26.924;2022-09-28T10:09:42;97868.88;;;26.71;32.14
37856;BME280;23694;43.274;26.924;2022-09-28T10:12:20;97860.59;;;26.84;32.36
37856;BME280;23694;43.274;26.924;2022-09-28T10:14:47;97867.38;;;26.75;32.35
37856;BME280;23694;43.274;26.924;2022-09-28T10:17:16;97851.59;;;26.78;32.54
37856;BME280;23694;43.274;26.924;2022-09-28T10:19:44;97873.31;;;26.77;32.69
37856;BME280;23694;43.274;26.924;2022-09-28T10:22:17;97863.50;;;26.82;32.55
37856;BME280;23694;43.274;26.924;2022-09-28T10:24:48;97858.50;;;26.98;31.55
37856;BME280;23694;43.274;26.924;2022-09-28T10:27:32;97850.53;;;27.03;30.66
37856;BME280;23694;43.274;26.924;2022-09-28T10:30:02;97848.44;;;26.93;31.24
37856;BME280;23694;43.274;26.924;2022-09-28T10:32:43;97854.63;;;27.05;31.08
37856;BME280;23694;43.274;26.924;2022-09-28T10:38:01;97851.69;;;27.07;30.08
37856;BME280;23694;43.274;26.924;2022-09-28T10:43:15;97855.66;;;27.16;29.95
37856;BME280;23694;43.274;26.924;2022-09-28T10:45:43;97853.22;;;27.03;30.29
37856;BME280;23694;43.274;26.924;2022-09-28T10:48:19;97850.66;;;27.08;29.36
37856;BME280;23694;43.274;26.924;2022-09-28T10:51:05;97849.00;;;27.19;29.37
37856;BME280;23694;43.274;26.924;2022-09-28T10:53:33;97858.34;;;27.16;30.08
37856;BME280;23694;43.274;26.924;2022-09-28T10:56:18;97849.09;;;27.24;30.12
37856;BME280;23694;43.274;26.924;2022-09-28T10:58:45;97851.31;;;27.27;29.24
37856;BME280;23694;43.274;26.924;2022-09-28T11:01:15;97848.50;;;27.33;29.50
37856;BME280;23694;43.274;26.924;2022-09-28T11:06:34;97846.56;;;27.57;29.24
37856;BME280;23694;43.274;26.924;2022-09-28T11:09:18;97836.59;;;27.58;28.52
37856;BME280;23694;43.274;26.924;2022-09-28T11:11:47;97838.28;;;27.47;28.80
37856;BME280;23694;43.274;26.924;2022-09-28T11:17:23;97845.31;;;27.48;29.25
37856;BME280;23694;43.274;26.924;2022-09-28T11:19:51;97839.81;;;27.43;28.66
37856;BME280;23694;43.274;26.924;2022-09-28T11:22:38;97835.75;;;27.40;28.60
37856;BME280;23694;43.274;26.924;2022-09-28T11:28:02;97822.81;;;27.54;28.41
37856;BME280;23694;43.274;26.924;2022-09-28T11:30:49;97835.63;;;27.75;28.94
37856;BME280;23694;43.274;26.924;2022-09-28T11:33:22;97830.47;;;27.74;28.79
37856;BME280;23694;43.274;26.924;2022-09-28T11:36:29;97825.72;;;27.64;29.25
37856;BME280;23694;43.274;26.924;2022-09-28T11:42:03;97811.34;;;27.59;29.09
37856;BME280;23694;43.274;26.924;2022-09-28T11:44:47;97805.03;;;27.65;28.41
37856;BME280;23694;43.274;26.924;2022-09-28T11:49:56;97812.53;;;27.63;29.23
37856;BME280;23694;43.274;26.924;2022-09-28T11:52:29;97794.50;;;27.63;28.57
37856;BME280;23694;43.274;26.924;2022-09-28T11:55:23;97813.47;;;27.57;29.51
37856;BME280;23694;43.274;26.924;2022-09-28T11:57:59;97807.59;;;27.60;28.86
37856;BME280;23694;43.274;26.924;2022-09-28T12:00:26;97807.66;;;27.76;29.27
37856;BME280;23694;43.274;26.924;2022-09-28T12:03:19;97807.81;;;27.70;28.60
37856;BME280;23694;43.274;26.924;2022-09-28T12:05:59;97806.34;;;27.79;28.80
37856;BME280;23694;43.274;26.924;2022-09-28T12:08:33;97807.31;;;27.73;29.07
37856;BME280;23694;43.274;26.924;2022-09-28T12:13:33;97804.63;;;27.73;29.20
37856;BME280;23694;43.274;26.924;2022-09-28T12:16:03;97809.28;;;27.77;29.18
37856;BME280;23694;43.274;26.924;2022-09-28T12:18:40;97803.66;;;27.79;29.36
37856;BME280;23694;43.274;26.924;2022-09-28T12:24:29;97801.22;;;27.77;29.24
37856;BME280;23694;43.274;26.924;2022-09-28T12:27:03;97804.22;;;27.81;29.14
37856;BME280;23694;43.274;26.924;2022-09-28T12:29:34;97803.91;;;27.77;29.11
37856;BME280;23694;43.274;26.924;2022-09-28T12:34:32;97792.19;;;27.55;28.89
37856;BME280;23694;43.274;26.924;2022-09-28T12:37:17;97803.66;;;27.51;29.23
37856;BME280;23694;43.274;26.924;2022-09-28T12:44:57;97790.63;;;27.59;29.31
37856;BME280;23694;43.274;26.924;2022-09-28T12:47:40;97793.72;;;27.51;29.37
37856;BME280;23694;43.274;26.924;2022-09-28T12:56:26;97787.50;;;27.62;29.65
37856;BME280;23694;43.274;26.924;2022-09-28T13:11:42;97780.03;;;27.81;29.80
37856;BME280;23694;43.274;26.924;2022-09-28T13:24:36;97799.91;;;27.52;29.99
37856;BME280;23694;43.274;26.924;2022-09-28T13:27:13;97795.25;;;27.47;30.25
37856;BME280;23694;43.274;26.924;2022-09-28T13:29:41;97799.69;;;27.53;30.61
37856;BME280;23694;43.274;26.924;2022-09-28T13:32:09;97802.22;;;27.60;30.15
37856;BME280;23694;43.274;26.924;2022-09-28T13:34:38;97801.88;;;27.56;30.36
37856;BME280;23694;43.274;26.924;2022-09-28T13:42:44;97801.22;;;27.49;30.62
37856;BME280;23694;43.274;26.924;2022-09-28T13:53:31;97801.97;;;27.33;30.63
37856;BME280;23694;43.274;26.924;2022-09-28T13:58:45;97791.81;;;27.23;30.99
37856;BME280;23694;43.274;26.924;2022-09-28T14:01:22;97795.13;;;27.13;31.03
37856;BME280;23694;43.274;26.924;2022-09-28T14:06:29;97801.94;;;27.04;30.93
37856;BME280;23694;43.274;26.924;2022-09-28T14:12:02;97805.09;;;27.01;31.70
37856;BME280;23694;43.274;26.924;2022-09-28T14:14:46;97806.50;;;26.92;32.07
37856;BME280;23694;43.274;26.924;2022-09-28T14:19:51;97804.97;;;26.96;31.63
37856;BME280;23694;43.274;26.924;2022-09-28T14:25:26;97804.41;;;26.82;32.26
37856;BME280;23694;43.274;26.924;2022-09-28T14:28:00;97811.19;;;26.73;32.37
37856;BME280;23694;43.274;26.924;2022-09-28T14:30:45;97809.22;;;26.69;32.51
37856;BME280;23694;43.274;26.924;2022-09-28T14:33:23;97815.50;;;26.74;32.27
37856;BME280;23694;43.274;26.924;2022-09-28T14:38:48;97817.72;;;26.66;32.50
37856;BME280;23694;43.274;26.924;2022-09-28T14:41:35;97815.41;;;26.69;32.95
37856;BME280;23694;43.274;26.924;2022-09-28T14:44:06;97810.16;;;26.74;32.58
37856;BME280;23694;43.274;26.924;2022-09-28T14:54:20;97827.19;;;26.45;33.30
37856;BME280;23694;43.274;26.924;2022-09-28T14:59:25;97834.53;;;26.49;33.50
37856;BME280;23694;43.274;26.924;2022-09-28T15:01:58;97829.88;;;26.45;34.11
37856;BME280;23694;43.274;26.924;2022-09-28T15:04:28;97830.22;;;26.37;34.81
37856;BME280;23694;43.274;26.924;2022-09-28T15:06:55;97828.44;;;26.31;35.21
37856;BME280;23694;43.274;26.924;2022-09-28T15:09:35;97842.00;;;26.36;35.26
37856;BME280;23694;43.274;26.924;2022-09-28T15:12:11;97841.72;;;26.26;35.92
37856;BME280;23694;43.274;26.924;2022-09-28T15:14:48;97844.84;;;26.11;36.37
37856;BME280;23694;43.274;26.924;2022-09-28T15:17:23;97844.56;;;26.01;37.75
37856;BME280;23694;43.274;26.924;2022-09-28T15:22:26;97851.25;;;25.68;38.26
37856;BME280;23694;43.274;26.924;2022-09-28T15:24:57;97845.31;;;25.48;39.21
37856;BME280;23694;43.274;26.924;2022-09-28T15:27:24;97852.69;;;25.34;39.93
37856;BME280;23694;43.274;26.924;2022-09-28T15:30:00;97853.97;;;25.13;40.69
37856;BME280;23694;43.274;26.924;2022-09-28T15:32:28;97855.78;;;24.94;41.67
37856;BME280;23694;43.274;26.924;2022-09-28T15:34:54;97856.25;;;24.66;41.89
37856;BME280;23694;43.274;26.924;2022-09-28T15:37:24;97858.41;;;24.58;43.07
37856;BME280;23694;43.274;26.924;2022-09-28T15:39:52;97857.94;;;24.43;43.24
37856;BME280;23694;43.274;26.924;2022-09-28T15:42:19;97868.22;;;24.14;44.44
37856;BME280;23694;43.274;26.924;2022-09-28T15:47:28;97873.84;;;23.68;46.05
37856;BME280;23694;43.274;26.924;2022-09-28T15:50:06;97863.41;;;23.53;46.15
37856;BME280;23694;43.274;26.924;2022-09-28T15:52:59;97868.19;;;23.45;46.60
37856;BME280;23694;43.274;26.924;2022-09-28T16:00:37;97877.75;;;23.07;48.24
37856;BME280;23694;43.274;26.924;2022-09-28T16:06:02;97884.81;;;22.82;49.46
37856;BME280;23694;43.274;26.924;2022-09-28T16:08:39;97886.41;;;22.70;49.77